createdAt,value
2022-08-07T00:05:12.307Z,9.00
2022-08-07T00:10:30.393Z,12.50
2022-08-07T00:15:46.685Z,8.90
2022-08-07T00:21:03.352Z,6.60
2022-08-07T00:26:31.172Z,5.90
2022-08-07T00:31:43.117Z,11.10
2022-08-07T00:36:46.808Z,7.50
2022-08-07T00:42:01.988Z,6.80
2022-08-07T00:47:16.085Z,10.50
2022-08-07T00:52:34.788Z,7.20
2022-08-07T00:57:55.758Z,7.30
2022-08-07T01:03:08.295Z,7.80
2022-08-07T01:08:16.456Z,7.50
2022-08-07T01:13:21.972Z,6.20
2022-08-07T01:18:27.401Z,8.70
2022-08-07T01:24:31.619Z,7.70
2022-08-07T01:29:44.342Z,7.70
2022-08-07T01:34:51.831Z,6.00
2022-08-07T01:41:26.368Z,5.90
2022-08-07T01:46:47.693Z,11.60
2022-08-07T01:52:03.936Z,6.60
2022-08-07T01:58:05.602Z,8.40
2022-08-07T02:03:48.753Z,10.20
2022-08-07T02:09:54.747Z,9.10
2022-08-07T02:16:28.736Z,7.50
2022-08-07T02:21:55.276Z,8.20
2022-08-07T02:27:17.849Z,10.00
2022-08-07T02:33:00.236Z,6.60
2022-08-07T02:38:39.734Z,6.50
2022-08-07T02:44:15.745Z,8.10
2022-08-07T02:49:56.017Z,9.00
2022-08-07T02:54:52.056Z,9.10
2022-08-07T03:00:01.300Z,9.20
2022-08-07T03:05:11.761Z,10.40
2022-08-07T03:10:25.101Z,7.50
2022-08-07T03:15:47.978Z,9.20
2022-08-07T03:20:58.023Z,9.10
2022-08-07T03:26:04.017Z,7.60
2022-08-07T03:31:23.726Z,7.60
2022-08-07T03:36:44.431Z,6.60
2022-08-07T03:42:02.681Z,8.50
2022-08-07T03:47:23.009Z,8.20
2022-08-07T03:52:51.150Z,7.50
2022-08-07T03:58:35.449Z,6.60
2022-08-07T04:03:20.408Z,5.50
2022-08-07T04:08:25.028Z,6.80
2022-08-07T04:13:28.910Z,7.90
2022-08-07T04:19:01.700Z,6.70
2022-08-07T04:24:30.815Z,7.70
2022-08-07T04:29:48.936Z,6.40
2022-08-07T04:35:37.459Z,7.60
2022-08-07T04:40:52.074Z,7.20
2022-08-07T04:46:12.504Z,7.10
2022-08-07T04:51:50.806Z,9.60
2022-08-07T04:58:10.441Z,8.00
2022-08-07T05:04:00.085Z,5.80
2022-08-07T05:09:27.970Z,9.30
2022-08-07T05:14:59.078Z,7.10
2022-08-07T05:20:11.478Z,9.40
2022-08-07T05:25:26.259Z,8.80
2022-08-07T05:30:47.126Z,9.20
2022-08-07T05:35:53.034Z,5.80
2022-08-07T05:40:58.796Z,8.50
2022-08-07T05:46:04.683Z,6.60
2022-08-07T05:51:12.900Z,6.50
2022-08-07T05:56:30.060Z,6.60
2022-08-07T06:01:36.065Z,7.80
2022-08-07T06:06:46.423Z,5.80
2022-08-07T06:11:51.455Z,6.20
2022-08-07T06:16:57.081Z,6.50
2022-08-07T06:22:14.313Z,5.70
2022-08-07T06:27:43.911Z,6.00
2022-08-07T06:32:49.669Z,6.50
2022-08-07T06:37:53.270Z,6.60
2022-08-07T06:42:59.191Z,5.20
2022-08-07T06:48:06.748Z,5.80
2022-08-07T06:54:11.735Z,6.80
2022-08-07T06:58:40.819Z,5.90
2022-08-07T07:04:32.618Z,5.40
2022-08-07T07:09:31.889Z,5.90
2022-08-07T07:14:58.441Z,4.30
2022-08-07T07:20:10.980Z,5.20
2022-08-07T07:26:35.471Z,5.20
2022-08-07T07:30:57.825Z,4.60
2022-08-07T07:36:05.419Z,4.10
2022-08-07T07:41:21.806Z,4.50
2022-08-07T07:46:55.862Z,5.60
2022-08-07T07:52:03.715Z,4.40
2022-08-07T07:57:11.134Z,6.30
2022-08-07T08:02:33.709Z,5.60
2022-08-07T08:07:59.997Z,5.30
2022-08-07T08:20:19.977Z,4.70
2022-08-07T08:25:55.371Z,4.90
2022-08-07T08:31:02.841Z,6.50
2022-08-07T08:36:11.247Z,5.30
2022-08-07T08:41:58.533Z,5.60
2022-08-07T08:47:27.065Z,5.40
2022-08-07T08:52:35.971Z,3.60
2022-08-07T08:58:06.768Z,3.80
2022-08-07T09:04:00.590Z,5.00
2022-08-07T09:09:33.247Z,4.40
2022-08-07T09:16:23.130Z,3.90
2022-08-07T09:20:57.940Z,4.20
2022-08-07T09:26:28.195Z,4.10
2022-08-07T09:31:52.202Z,4.30
2022-08-07T09:37:14.659Z,4.60
2022-08-07T09:42:45.751Z,4.60
2022-08-07T09:48:15.290Z,3.90
2022-08-07T09:53:26.194Z,4.00
2022-08-07T09:59:07.541Z,4.30
2022-08-07T10:04:53.443Z,3.50
2022-08-07T10:10:21.981Z,4.80
2022-08-07T10:16:00.775Z,3.30
2022-08-07T10:22:14.176Z,3.80
2022-08-07T10:27:20.907Z,4.10
2022-08-07T10:32:59.943Z,3.10
2022-08-07T10:38:46.410Z,3.60
2022-08-07T10:44:08.484Z,3.30
2022-08-07T10:49:49.164Z,3.70
2022-08-07T10:55:26.980Z,3.20
2022-08-07T11:01:13.201Z,3.00
2022-08-07T11:06:31.204Z,3.90
2022-08-07T11:11:51.874Z,3.50
2022-08-07T11:17:23.242Z,4.00
2022-08-07T11:23:09.380Z,4.80
2022-08-07T11:28:24.852Z,3.90
2022-08-07T11:33:59.785Z,5.00
2022-08-07T11:39:39.551Z,2.10
2022-08-07T11:45:49.906Z,3.80
2022-08-07T11:51:03.707Z,2.90
2022-08-07T11:56:32.976Z,3.40
2022-08-07T12:02:01.348Z,5.30
2022-08-07T12:07:27.476Z,6.70
2022-08-07T12:13:11.534Z,5.10
2022-08-07T12:18:45.321Z,5.70
2022-08-07T12:24:12.394Z,4.30
2022-08-07T12:29:52.558Z,3.70
2022-08-07T12:34:58.997Z,4.30
2022-08-07T12:40:29.764Z,4.10
2022-08-07T12:45:37.897Z,5.10
2022-08-07T12:51:46.468Z,5.70
2022-08-07T12:56:55.067Z,3.60
2022-08-07T13:02:19.138Z,4.00
2022-08-07T13:08:14.553Z,3.50
2022-08-07T13:13:46.824Z,4.40
2022-08-07T13:19:18.265Z,4.90
2022-08-07T13:24:54.198Z,5.40
2022-08-07T13:30:19.741Z,3.90
2022-08-07T13:36:00.200Z,3.90
2022-08-07T13:41:48.546Z,5.90
2022-08-07T13:46:57.080Z,4.60
2022-08-07T13:52:31.614Z,4.10
2022-08-07T13:57:37.806Z,4.40
2022-08-07T14:02:51.186Z,6.60
2022-08-07T14:08:02.998Z,3.40
2022-08-07T14:13:08.634Z,3.60
2022-08-07T14:18:28.394Z,3.20
2022-08-07T14:24:00.129Z,4.40
2022-08-07T14:30:02.829Z,3.30
2022-08-07T14:34:32.535Z,4.10
2022-08-07T14:40:17.846Z,3.20
2022-08-07T14:45:21.134Z,6.70
2022-08-07T14:50:28.151Z,4.00
2022-08-07T14:55:34.677Z,4.60
2022-08-07T15:01:00.318Z,4.30
2022-08-07T15:06:31.682Z,5.80
2022-08-07T15:12:06.720Z,3.80
2022-08-07T15:17:27.223Z,3.90
2022-08-07T15:22:56.377Z,2.70
2022-08-07T15:33:42.735Z,5.80
2022-08-07T15:38:59.208Z,5.60
2022-08-07T15:44:31.365Z,2.90
2022-08-07T15:55:08.602Z,4.40
2022-08-07T16:00:31.881Z,5.20
2022-08-07T16:05:39.992Z,4.40
2022-08-07T16:10:54.345Z,5.40
2022-08-07T16:16:47.925Z,6.30
2022-08-07T16:22:37.714Z,4.40
2022-08-07T16:30:05.750Z,5.90
2022-08-07T16:34:06.721Z,3.60
2022-08-07T16:39:55.784Z,3.60
2022-08-07T16:47:02.776Z,5.50
2022-08-07T16:52:41.707Z,3.90
2022-08-07T16:58:01.788Z,4.50
2022-08-07T17:04:00.012Z,5.10
2022-08-07T17:09:14.372Z,4.40
2022-08-07T17:14:50.363Z,5.60
2022-08-07T17:21:00.221Z,5.80
2022-08-07T17:26:24.161Z,6.40
2022-08-07T17:32:02.532Z,3.90
2022-08-07T17:38:06.511Z,6.30
2022-08-07T17:42:59.534Z,3.80
2022-08-07T17:48:12.767Z,4.20
2022-08-07T17:54:02.434Z,4.20
2022-08-07T17:59:16.885Z,4.90
2022-08-07T18:04:42.509Z,4.90
2022-08-07T18:10:09.833Z,5.20
2022-08-07T18:15:32.580Z,4.40
2022-08-07T18:21:08.288Z,4.50
2022-08-07T18:26:40.680Z,4.70
2022-08-07T18:32:26.001Z,4.10
2022-08-07T18:38:54.814Z,4.50
2022-08-07T18:44:03.363Z,9.80
2022-08-07T18:50:32.631Z,7.70
2022-08-07T18:55:42.541Z,8.90
2022-08-07T19:00:55.102Z,4.70
2022-08-07T19:06:53.392Z,4.80
2022-08-07T19:12:33.381Z,6.10
2022-08-07T19:18:14.982Z,6.60
2022-08-07T19:23:59.081Z,8.90
2022-08-07T19:30:54.671Z,7.30
2022-08-07T19:34:36.197Z,6.30
2022-08-07T19:39:56.932Z,5.80
2022-08-07T19:45:09.886Z,5.30
2022-08-07T19:50:41.093Z,8.60
2022-08-07T19:55:57.862Z,6.80
2022-08-07T20:01:03.422Z,7.60
2022-08-07T20:06:30.864Z,6.20
2022-08-07T20:12:22.057Z,6.30
2022-08-07T20:17:10.009Z,5.40
2022-08-07T20:35:54.294Z,6.80
2022-08-07T20:41:05.840Z,8.60
2022-08-07T20:46:26.821Z,6.40
2022-08-07T20:51:35.970Z,6.00
2022-08-07T20:56:52.975Z,4.40
2022-08-07T21:01:58.541Z,7.00
2022-08-07T21:07:14.675Z,5.70
2022-08-07T21:12:28.802Z,7.50
2022-08-07T21:18:03.821Z,5.50
2022-08-07T21:23:17.428Z,6.20
2022-08-07T21:28:52.110Z,6.40
2022-08-07T21:34:07.544Z,6.80
2022-08-07T21:39:45.061Z,5.60
2022-08-07T21:46:04.802Z,8.60
2022-08-07T21:50:55.049Z,6.20
2022-08-07T21:56:36.104Z,6.90
2022-08-07T22:02:11.131Z,4.70
2022-08-07T22:07:35.755Z,4.60
2022-08-07T22:13:02.943Z,8.50
2022-08-07T22:18:43.713Z,7.50
2022-08-07T22:24:04.099Z,6.20
2022-08-07T22:29:33.731Z,7.70
2022-08-07T22:34:53.207Z,6.00
2022-08-07T22:40:10.639Z,6.80
2022-08-07T22:46:04.412Z,6.30
2022-08-07T22:51:36.304Z,7.00
2022-08-07T22:56:58.258Z,6.50
2022-08-07T23:02:49.000Z,5.00
2022-08-07T23:08:23.886Z,5.80
2022-08-07T23:13:29.055Z,6.50
2022-08-07T23:19:15.806Z,7.70
2022-08-07T23:24:45.795Z,6.30
2022-08-07T23:30:39.172Z,7.70
2022-08-07T23:36:17.418Z,6.70
2022-08-07T23:41:47.507Z,5.70
2022-08-07T23:47:29.853Z,5.90
2022-08-07T23:52:57.921Z,7.70
2022-08-07T23:58:24.600Z,7.20
